createdAt,value
2018-02-12T00:00:33.617Z,6.30
2018-02-12T00:01:34.723Z,6.20
2018-02-12T00:02:35.798Z,6.10
2018-02-12T00:03:36.867Z,6.00
2018-02-12T00:04:38.674Z,5.80
2018-02-12T00:05:39.747Z,5.80
2018-02-12T00:06:40.814Z,5.60
2018-02-12T00:07:41.887Z,5.50
2018-02-12T00:08:42.951Z,5.40
2018-02-12T00:09:43.999Z,5.40
2018-02-12T00:10:45.074Z,5.30
2018-02-12T00:11:46.135Z,5.30
2018-02-12T00:12:47.194Z,5.20
2018-02-12T00:13:48.285Z,5.20
2018-02-12T00:14:49.343Z,5.10
2018-02-12T00:15:50.399Z,5.10
2018-02-12T00:16:51.470Z,5.10
2018-02-12T00:17:52.530Z,5.10
2018-02-12T00:18:53.652Z,5.10
2018-02-12T00:19:54.686Z,5.10
2018-02-12T00:20:55.758Z,5.00
2018-02-12T00:21:56.814Z,5.00
2018-02-12T00:22:57.890Z,4.90
2018-02-12T00:23:58.950Z,4.90
2018-02-12T00:25:00.032Z,4.90
2018-02-12T00:26:01.108Z,4.80
2018-02-12T00:27:02.230Z,4.80
2018-02-12T00:28:03.278Z,4.80
2018-02-12T00:29:04.359Z,4.80
2018-02-12T00:30:05.413Z,4.80
2018-02-12T00:31:07.239Z,4.70
2018-02-12T00:32:08.327Z,4.70
2018-02-12T00:33:09.382Z,4.80
2018-02-12T00:44:14.478Z,4.60
2018-02-12T00:45:15.538Z,4.60
2018-02-12T00:46:16.614Z,4.60
2018-02-12T00:47:17.678Z,4.60
2018-02-12T00:48:18.751Z,4.70
2018-02-12T00:49:19.819Z,4.80
2018-02-12T00:50:20.898Z,4.80
2018-02-12T00:51:21.967Z,4.90
2018-02-12T00:52:23.775Z,5.00
2018-02-12T00:53:24.839Z,5.00
2018-02-12T00:54:26.654Z,5.20
2018-02-12T00:55:27.727Z,5.20
2018-02-12T00:56:28.797Z,5.30
2018-02-12T00:57:30.798Z,5.30
2018-02-12T00:58:32.622Z,5.40
2018-02-12T00:59:33.682Z,5.40
2018-02-12T01:00:35.507Z,5.50
2018-02-12T01:01:36.570Z,5.40
2018-02-12T01:02:38.379Z,5.60
2018-02-12T01:03:39.438Z,5.50
2018-02-12T01:04:40.503Z,5.60
2018-02-12T01:05:41.583Z,5.60
2018-02-12T01:06:42.667Z,5.60
2018-02-12T01:07:43.728Z,5.70
2018-02-12T01:08:44.782Z,5.70
2018-02-12T01:09:45.846Z,5.80
2018-02-12T01:10:46.914Z,5.80
2018-02-12T01:11:47.988Z,5.80
2018-02-12T01:12:49.062Z,5.90
2018-02-12T01:13:50.158Z,5.90
2018-02-12T01:14:51.227Z,5.90
2018-02-12T01:15:52.320Z,5.90
2018-02-12T01:16:53.427Z,5.90
2018-02-12T01:17:54.504Z,6.00
2018-02-12T01:18:55.582Z,6.00
2018-02-12T01:19:56.654Z,6.00
2018-02-12T01:20:58.483Z,6.00
2018-02-12T01:21:59.595Z,6.00
2018-02-12T01:23:00.666Z,6.10
2018-02-12T01:24:01.727Z,6.10
2018-02-12T01:25:03.555Z,6.10
2018-02-12T01:26:05.354Z,6.10
2018-02-12T01:27:06.446Z,6.10
2018-02-12T01:28:07.534Z,6.10
2018-02-12T01:29:08.599Z,6.10
2018-02-12T01:30:10.479Z,6.10
2018-02-12T01:31:11.556Z,6.10
2018-02-12T01:32:12.618Z,6.10
2018-02-12T01:33:13.693Z,6.00
2018-02-12T01:34:14.758Z,6.00
2018-02-12T01:35:15.818Z,6.00
2018-02-12T01:36:17.635Z,6.00
2018-02-12T01:37:18.715Z,6.00
2018-02-12T01:38:19.791Z,6.00
2018-02-12T01:39:20.880Z,6.00
2018-02-12T01:40:21.950Z,5.90
2018-02-12T01:41:23.002Z,5.90
2018-02-12T01:42:24.082Z,5.90
2018-02-12T01:43:25.142Z,5.90
2018-02-12T01:44:26.209Z,5.80
2018-02-12T01:45:27.299Z,5.80
2018-02-12T01:46:28.375Z,5.80
2018-02-12T01:47:29.454Z,5.80
2018-02-12T01:48:30.518Z,5.80
2018-02-12T01:49:31.586Z,5.80
2018-02-12T01:50:32.655Z,5.70
2018-02-12T01:51:33.722Z,5.70
2018-02-12T01:52:34.791Z,5.70
2018-02-12T01:53:36.578Z,5.80
2018-02-12T01:54:37.640Z,5.80
2018-02-12T01:55:39.463Z,5.80
2018-02-12T01:56:40.510Z,5.80
2018-02-12T01:57:41.580Z,5.90
2018-02-12T01:58:42.650Z,5.90
2018-02-12T01:59:43.702Z,5.90
2018-02-12T02:00:44.794Z,5.90
2018-02-12T02:01:45.871Z,5.90
2018-02-12T02:02:46.985Z,5.80
2018-02-12T02:03:48.035Z,5.70
2018-02-12T02:04:49.115Z,5.90
2018-02-12T02:05:50.178Z,5.80
2018-02-12T02:06:51.247Z,5.90
2018-02-12T02:07:52.315Z,5.80
2018-02-12T02:08:53.395Z,5.80
2018-02-12T02:09:54.470Z,5.80
2018-02-12T02:10:55.548Z,5.60
2018-02-12T02:11:56.647Z,5.60
2018-02-12T02:12:57.726Z,5.60
2018-02-12T02:13:58.796Z,5.40
2018-02-12T02:14:59.870Z,5.50
2018-02-12T02:16:00.947Z,5.50
2018-02-12T02:17:02.020Z,5.50
2018-02-12T02:18:03.130Z,5.50
2018-02-12T02:19:04.187Z,5.50
2018-02-12T02:20:05.260Z,5.50
2018-02-12T02:21:06.334Z,5.50
2018-02-12T02:22:07.442Z,5.50
2018-02-12T02:23:09.295Z,5.50
2018-02-12T02:24:10.366Z,5.40
2018-02-12T02:25:11.435Z,5.50
2018-02-12T02:26:12.551Z,5.50
2018-02-12T02:27:13.610Z,5.50
2018-02-12T02:28:14.715Z,5.50
2018-02-12T02:29:15.781Z,5.50
2018-02-12T02:30:16.875Z,5.50
2018-02-12T02:31:17.947Z,5.50
2018-02-12T02:32:19.011Z,5.50
2018-02-12T02:33:20.112Z,5.50
2018-02-12T02:34:21.931Z,5.50
2018-02-12T02:35:23.020Z,5.50
2018-02-12T02:36:24.095Z,5.50
2018-02-12T02:37:25.171Z,5.50
2018-02-12T02:38:26.267Z,5.50
2018-02-12T02:39:27.346Z,5.40
2018-02-12T02:40:28.419Z,5.50
2018-02-12T02:41:29.521Z,5.50
2018-02-12T02:42:30.594Z,5.50
2018-02-12T02:43:31.683Z,5.50
2018-02-12T02:44:32.776Z,5.50
2018-02-12T02:45:34.612Z,5.50
2018-02-12T02:46:35.680Z,5.50
2018-02-12T02:47:36.759Z,5.50
2018-02-12T02:48:37.833Z,5.50
2018-02-12T02:49:38.907Z,5.50
2018-02-12T02:50:39.963Z,5.50
2018-02-12T02:51:41.066Z,5.60
2018-02-12T02:52:42.146Z,5.60
2018-02-12T02:53:43.232Z,5.60
2018-02-12T02:54:44.320Z,5.60
2018-02-12T02:55:46.138Z,5.60
2018-02-12T02:56:47.201Z,5.50
2018-02-12T02:57:49.018Z,5.50
2018-02-12T02:58:50.114Z,5.50
2018-02-12T02:59:51.178Z,5.50
2018-02-12T03:00:52.271Z,5.50
2018-02-12T03:01:53.350Z,5.50
2018-02-12T03:02:54.425Z,5.50
2018-02-12T03:03:55.487Z,5.40
2018-02-12T03:04:56.552Z,5.50
2018-02-12T03:05:57.630Z,5.50
2018-02-12T03:06:58.702Z,5.60
2018-02-12T03:07:59.767Z,5.60
2018-02-12T03:09:01.602Z,5.70
2018-02-12T03:10:02.683Z,5.70
2018-02-12T03:11:03.750Z,5.70
2018-02-12T03:12:04.818Z,5.70
2018-02-12T03:13:05.908Z,5.70
2018-02-12T03:14:06.982Z,5.70
2018-02-12T03:15:08.060Z,5.70
2018-02-12T03:16:09.151Z,5.70
2018-02-12T03:17:10.954Z,5.80
2018-02-12T03:18:12.032Z,5.80
2018-02-12T03:19:13.111Z,5.80
2018-02-12T03:20:14.175Z,5.80
2018-02-12T03:21:15.247Z,5.80
2018-02-12T03:22:16.330Z,5.80
2018-02-12T03:23:17.403Z,5.90
2018-02-12T03:24:19.440Z,5.90
2018-02-12T03:25:20.506Z,5.90
2018-02-12T03:26:21.591Z,5.90
2018-02-12T03:27:23.430Z,5.90
2018-02-12T03:28:24.522Z,5.90
2018-02-12T03:29:25.594Z,5.90
2018-02-12T03:30:27.420Z,6.00
2018-02-12T03:31:28.493Z,5.90
2018-02-12T03:32:29.606Z,5.90
2018-02-12T03:33:30.678Z,5.90
2018-02-12T03:34:31.766Z,5.80
2018-02-12T03:35:32.830Z,5.80
2018-02-12T03:36:33.934Z,5.80
2018-02-12T03:37:35.016Z,5.80
2018-02-12T03:38:36.086Z,5.70
2018-02-12T03:39:37.145Z,5.70
2018-02-12T03:40:38.222Z,5.70
2018-02-12T03:41:39.298Z,5.70
2018-02-12T03:42:40.367Z,5.70
2018-02-12T03:43:41.448Z,5.70
2018-02-12T03:44:42.534Z,5.70
2018-02-12T03:45:43.649Z,5.60
2018-02-12T03:46:45.498Z,5.60
2018-02-12T03:47:46.585Z,5.60
2018-02-12T03:48:47.651Z,5.60
2018-02-12T03:49:49.484Z,5.60
2018-02-12T03:50:50.552Z,5.60
2018-02-12T03:51:52.357Z,5.60
2018-02-12T03:52:53.433Z,5.60
2018-02-12T03:53:55.254Z,5.70
2018-02-12T03:54:56.359Z,5.70
2018-02-12T03:55:57.422Z,5.80
2018-02-12T03:56:58.494Z,5.80
2018-02-12T03:57:59.576Z,5.80
2018-02-12T03:59:00.659Z,5.80
2018-02-12T04:00:01.751Z,5.80
2018-02-12T04:01:02.827Z,5.80
2018-02-12T04:02:04.647Z,5.80
2018-02-12T04:03:06.467Z,5.90
2018-02-12T04:04:07.535Z,5.90
2018-02-12T04:05:08.622Z,5.90
2018-02-12T04:06:09.694Z,5.90
2018-02-12T04:07:10.748Z,5.90
2018-02-12T04:08:11.831Z,5.90
2018-02-12T04:09:12.914Z,5.90
2018-02-12T04:10:13.999Z,5.80
2018-02-12T04:11:15.111Z,5.90
2018-02-12T04:12:16.188Z,5.80
2018-02-12T04:13:17.255Z,5.80
2018-02-12T04:14:18.340Z,5.70
2018-02-12T04:15:19.454Z,5.70
2018-02-12T04:16:20.517Z,5.70
2018-02-12T04:17:21.616Z,5.70
2018-02-12T04:18:22.702Z,5.70
2018-02-12T04:19:24.507Z,5.60
2018-02-12T04:20:25.598Z,5.60
2018-02-12T04:21:26.679Z,5.60
2018-02-12T04:22:27.787Z,5.60
2018-02-12T04:23:28.863Z,5.60
2018-02-12T04:24:29.914Z,5.60
2018-02-12T04:25:30.994Z,5.60
2018-02-12T04:26:32.066Z,5.60
2018-02-12T04:27:33.886Z,5.70
2018-02-12T04:28:34.963Z,5.60
2018-02-12T04:29:36.055Z,5.70
2018-02-12T04:30:37.340Z,5.60
2018-02-12T04:31:38.390Z,5.60
2018-02-12T04:32:39.463Z,5.60
2018-02-12T04:33:40.527Z,5.60
2018-02-12T04:34:41.638Z,5.60
2018-02-12T04:35:42.740Z,5.60
2018-02-12T04:36:43.851Z,5.60
2018-02-12T04:37:44.952Z,5.50
2018-02-12T04:38:46.068Z,5.50
2018-02-12T04:39:47.154Z,5.50
2018-02-12T04:40:48.227Z,5.50
2018-02-12T04:41:49.305Z,5.50
2018-02-12T04:42:50.395Z,5.40
2018-02-12T04:43:51.455Z,5.50
2018-02-12T04:44:52.516Z,5.60
2018-02-12T04:45:53.591Z,5.60
2018-02-12T04:46:54.664Z,5.50
2018-02-12T04:47:55.738Z,5.50
2018-02-12T04:48:56.795Z,5.50
2018-02-12T04:49:57.871Z,5.60
2018-02-12T04:50:58.936Z,5.60
2018-02-12T04:52:00.032Z,5.50
2018-02-12T04:53:01.107Z,5.60
2018-02-12T04:54:02.234Z,5.60
2018-02-12T04:55:03.306Z,5.60
2018-02-12T04:56:04.383Z,5.60
2018-02-12T04:57:05.440Z,5.60
2018-02-12T04:58:06.511Z,5.60
2018-02-12T04:59:07.591Z,5.70
2018-02-12T05:00:08.710Z,5.70
2018-02-12T05:01:09.799Z,5.80
2018-02-12T05:02:10.874Z,5.90
2018-02-12T05:03:11.959Z,5.90
2018-02-12T05:04:13.771Z,5.90
2018-02-12T05:05:14.877Z,5.90
2018-02-12T05:06:15.923Z,5.90
2018-02-12T05:07:17.019Z,5.90
2018-02-12T05:08:18.834Z,5.90
2018-02-12T05:09:19.914Z,5.90
2018-02-12T05:10:20.999Z,5.80
2018-02-12T05:11:22.827Z,5.80
2018-02-12T05:12:23.962Z,5.80
2018-02-12T05:13:25.072Z,5.80
2018-02-12T05:14:26.142Z,5.70
2018-02-12T05:15:27.248Z,5.70
2018-02-12T05:16:28.339Z,5.60
2018-02-12T05:17:29.423Z,5.50
2018-02-12T05:18:30.496Z,5.50
2018-02-12T05:19:31.579Z,5.50
2018-02-12T05:20:32.642Z,5.50
2018-02-12T05:21:33.746Z,5.40
2018-02-12T05:22:35.066Z,5.40
2018-02-12T05:23:36.123Z,5.40
2018-02-12T05:24:37.195Z,5.40
2018-02-12T05:25:38.263Z,5.40
2018-02-12T05:26:39.338Z,5.40
2018-02-12T05:27:40.428Z,5.40
2018-02-12T05:28:41.500Z,5.40
2018-02-12T05:29:42.590Z,5.30
2018-02-12T05:30:43.667Z,5.30
2018-02-12T05:31:44.775Z,5.30
2018-02-12T05:32:45.857Z,5.30
2018-02-12T05:33:46.942Z,5.20
2018-02-12T05:34:48.043Z,5.10
2018-02-12T05:35:49.124Z,5.10
2018-02-12T05:36:50.212Z,5.10
2018-02-12T05:37:51.319Z,5.10
2018-02-12T05:38:52.374Z,5.10
2018-02-12T05:39:53.464Z,5.10
2018-02-12T05:40:54.554Z,5.10
2018-02-12T05:41:55.643Z,5.10
2018-02-12T05:42:56.732Z,5.20
2018-02-12T05:43:57.806Z,5.00
2018-02-12T05:44:58.892Z,5.00
2018-02-12T05:45:59.976Z,5.00
2018-02-12T05:47:01.077Z,5.00
2018-02-12T05:48:02.163Z,5.00
2018-02-12T05:49:03.230Z,5.00
2018-02-12T05:50:04.326Z,5.00
2018-02-12T05:51:05.390Z,5.00
2018-02-12T05:52:06.465Z,5.00
2018-02-12T05:53:07.578Z,4.70
2018-02-12T05:54:08.628Z,4.90
2018-02-12T05:55:09.718Z,4.90
2018-02-12T05:56:10.795Z,4.80
2018-02-12T05:57:11.878Z,4.90
2018-02-12T05:58:12.950Z,4.90
2018-02-12T05:59:14.770Z,4.90
2018-02-12T06:00:15.847Z,4.90
2018-02-12T06:01:16.931Z,4.90
2018-02-12T06:02:18.087Z,4.90
2018-02-12T06:03:19.181Z,4.80
2018-02-12T06:04:20.274Z,4.90
2018-02-12T06:05:21.352Z,4.80
2018-02-12T06:06:22.437Z,4.80
2018-02-12T06:07:23.555Z,4.80
2018-02-12T06:08:25.369Z,4.70
2018-02-12T06:09:26.440Z,4.70
2018-02-12T06:10:27.537Z,4.70
2018-02-12T06:11:28.619Z,4.70
2018-02-12T06:12:29.720Z,4.70
2018-02-12T06:13:30.815Z,4.70
2018-02-12T06:14:31.888Z,4.60
2018-02-12T06:15:32.975Z,4.70
2018-02-12T06:16:34.783Z,4.60
2018-02-12T06:17:35.870Z,4.60
2018-02-12T06:18:36.998Z,4.60
2018-02-12T06:19:38.147Z,4.60
2018-02-12T06:20:39.222Z,4.60
2018-02-12T06:21:41.034Z,4.60
2018-02-12T06:22:42.116Z,4.50
2018-02-12T06:23:43.183Z,4.50
2018-02-12T06:24:44.255Z,4.50
2018-02-12T06:25:45.334Z,4.50
2018-02-12T06:26:46.411Z,4.50
2018-02-12T06:27:47.530Z,4.50
2018-02-12T06:28:48.668Z,4.50
2018-02-12T06:29:50.510Z,4.50
2018-02-12T06:30:51.575Z,4.50
2018-02-12T06:31:53.379Z,4.40
2018-02-12T06:32:54.498Z,4.40
2018-02-12T06:33:55.566Z,4.40
2018-02-12T06:34:56.630Z,4.40
2018-02-12T06:35:57.715Z,4.40
2018-02-12T06:36:58.785Z,4.30
2018-02-12T06:38:00.625Z,4.30
2018-02-12T06:39:01.723Z,4.30
2018-02-12T06:40:02.798Z,4.20
2018-02-12T06:41:04.602Z,4.20
2018-02-12T06:42:05.671Z,4.20
2018-02-12T06:43:07.494Z,4.20
2018-02-12T06:44:08.572Z,4.20
2018-02-12T06:45:10.400Z,4.20
2018-02-12T06:46:11.558Z,4.20
2018-02-12T06:47:12.651Z,4.20
2018-02-12T06:48:13.726Z,4.20
2018-02-12T06:49:14.841Z,4.20
2018-02-12T06:50:15.870Z,4.20
2018-02-12T06:51:17.686Z,4.30
2018-02-12T06:52:18.764Z,4.20
2018-02-12T06:53:19.851Z,4.20
2018-02-12T06:54:20.943Z,4.20
2018-02-12T06:55:22.768Z,4.10
2018-02-12T06:56:24.566Z,4.10
2018-02-12T06:57:25.642Z,4.10
2018-02-12T06:58:26.739Z,4.10
2018-02-12T06:59:27.811Z,4.10
2018-02-12T07:00:29.647Z,4.00
2018-02-12T07:01:30.754Z,4.00
2018-02-12T07:02:31.833Z,4.00
2018-02-12T07:03:33.711Z,4.00
2018-02-12T07:04:34.786Z,4.00
2018-02-12T07:05:35.938Z,4.00
2018-02-12T07:06:37.052Z,4.10
2018-02-12T07:07:38.118Z,4.10
2018-02-12T07:08:39.195Z,4.10
2018-02-12T07:09:40.298Z,4.10
2018-02-12T07:10:41.362Z,4.10
2018-02-12T07:11:42.418Z,3.90
2018-02-12T07:12:43.474Z,4.00
2018-02-12T07:13:44.567Z,4.00
2018-02-12T07:14:45.692Z,4.10
2018-02-12T07:15:46.798Z,4.10
2018-02-12T07:16:47.855Z,4.10
2018-02-12T07:17:48.938Z,4.20
2018-02-12T07:18:50.799Z,4.20
2018-02-12T07:19:51.918Z,4.20
2018-02-12T07:20:52.998Z,4.20
2018-02-12T07:21:54.077Z,4.30
2018-02-12T07:22:55.879Z,4.30
2018-02-12T07:23:56.971Z,4.30
2018-02-12T07:24:58.064Z,4.40
2018-02-12T07:25:59.143Z,4.40
2018-02-12T07:27:00.215Z,4.40
2018-02-12T07:28:01.316Z,4.50
2018-02-12T07:29:02.407Z,4.50
2018-02-12T07:30:03.496Z,4.50
2018-02-12T07:31:04.570Z,4.40
2018-02-12T07:32:05.654Z,4.60
2018-02-12T07:33:06.725Z,4.70
2018-02-12T07:34:07.836Z,4.70
2018-02-12T07:35:08.934Z,4.70
2018-02-12T07:36:10.008Z,4.70
2018-02-12T07:37:11.074Z,4.80
2018-02-12T07:38:12.907Z,4.80
2018-02-12T07:39:13.998Z,4.80
2018-02-12T07:40:15.069Z,4.90
2018-02-12T07:41:16.156Z,4.80
2018-02-12T07:42:17.231Z,4.90
2018-02-12T07:43:18.310Z,4.90
2018-02-12T07:44:19.383Z,4.80
2018-02-12T07:45:20.451Z,4.90
2018-02-12T07:46:22.278Z,4.90
2018-02-12T07:47:23.362Z,4.80
2018-02-12T07:48:24.440Z,4.90
2018-02-12T07:49:25.539Z,4.80
2018-02-12T07:50:26.621Z,4.80
2018-02-12T07:51:27.698Z,4.80
2018-02-12T07:52:28.755Z,4.80
2018-02-12T07:53:29.828Z,4.80
2018-02-12T07:54:31.650Z,4.80
2018-02-12T07:55:32.739Z,4.80
2018-02-12T07:56:33.819Z,4.70
2018-02-12T07:57:34.913Z,4.60
2018-02-12T07:58:35.990Z,4.60
2018-02-12T07:59:37.062Z,4.60
2018-02-12T08:00:38.154Z,4.60
2018-02-12T08:01:39.237Z,4.50
2018-02-12T08:02:40.334Z,4.50
2018-02-12T08:03:41.399Z,4.50
2018-02-12T08:04:42.498Z,4.40
2018-02-12T08:05:44.321Z,4.40
2018-02-12T08:06:45.415Z,4.40
2018-02-12T08:07:46.490Z,4.10
2018-02-12T08:08:47.559Z,4.40
2018-02-12T08:09:48.651Z,4.40
2018-02-12T08:10:49.735Z,4.30
2018-02-12T08:11:50.806Z,4.30
2018-02-12T08:12:51.875Z,4.30
2018-02-12T08:13:52.958Z,4.30
2018-02-12T08:14:54.051Z,4.30
2018-02-12T08:15:55.202Z,4.30
2018-02-12T08:16:56.305Z,4.30
2018-02-12T08:17:57.371Z,4.20
2018-02-12T08:18:58.447Z,4.20
2018-02-12T08:19:59.527Z,4.20
2018-02-12T08:21:00.614Z,4.20
2018-02-12T08:22:01.671Z,4.20
2018-02-12T08:23:02.763Z,4.20
2018-02-12T08:24:03.855Z,4.20
2018-02-12T08:25:04.943Z,4.20
2018-02-12T08:26:06.020Z,4.20
2018-02-12T08:27:07.095Z,4.10
2018-02-12T08:28:08.192Z,4.10
2018-02-12T08:29:09.267Z,4.00
2018-02-12T08:30:10.378Z,4.00
2018-02-12T08:31:11.458Z,4.00
2018-02-12T08:32:13.271Z,3.90
2018-02-12T08:33:14.356Z,3.90
2018-02-12T08:34:15.458Z,3.90
2018-02-12T08:35:16.574Z,4.00
2018-02-12T08:36:17.648Z,4.00
2018-02-12T08:37:18.726Z,4.00
2018-02-12T08:38:19.800Z,4.00
2018-02-12T08:39:21.629Z,3.90
2018-02-12T08:40:22.710Z,3.90
2018-02-12T08:41:23.805Z,3.90
2018-02-12T08:42:24.900Z,4.00
2018-02-12T08:43:25.968Z,4.00
2018-02-12T08:44:27.068Z,4.10
2018-02-12T08:45:28.160Z,4.10
2018-02-12T08:46:29.275Z,4.20
2018-02-12T08:47:31.096Z,4.10
2018-02-12T08:48:32.171Z,4.10
2018-02-12T08:49:33.254Z,4.10
2018-02-12T08:50:34.342Z,4.10
2018-02-12T08:51:35.415Z,4.00
2018-02-12T08:52:36.694Z,4.00
2018-02-12T08:53:38.504Z,4.00
2018-02-12T08:54:39.574Z,4.00
2018-02-12T08:55:41.412Z,4.00
2018-02-12T08:56:42.495Z,4.00
2018-02-12T08:57:43.586Z,4.00
2018-02-12T08:58:44.655Z,4.00
2018-02-12T08:59:45.743Z,4.00
2018-02-12T09:00:46.827Z,4.00
2018-02-12T09:01:47.950Z,4.00
2018-02-12T09:02:49.027Z,4.00
2018-02-12T09:03:50.107Z,4.00
2018-02-12T09:04:51.191Z,4.00
2018-02-12T09:05:52.298Z,4.00
2018-02-12T09:06:53.390Z,4.00
2018-02-12T09:07:54.480Z,4.00
2018-02-12T09:08:55.546Z,4.00
2018-02-12T09:09:57.367Z,4.10
2018-02-12T09:10:58.462Z,4.00
2018-02-12T09:11:59.551Z,4.00
2018-02-12T09:13:01.390Z,4.10
2018-02-12T09:14:02.484Z,4.10
2018-02-12T09:15:03.576Z,4.20
2018-02-12T09:16:05.404Z,4.20
2018-02-12T09:17:06.514Z,4.20
2018-02-12T09:18:07.591Z,4.10
2018-02-12T09:19:09.419Z,4.10
2018-02-12T09:20:10.473Z,4.10
2018-02-12T09:21:12.307Z,4.10
2018-02-12T09:22:13.391Z,4.10
2018-02-12T09:23:14.457Z,4.20
2018-02-12T09:24:15.524Z,4.20
2018-02-12T09:25:16.609Z,4.30
2018-02-12T09:26:17.707Z,4.30
2018-02-12T09:27:18.788Z,4.30
2018-02-12T09:28:19.872Z,4.40
2018-02-12T09:29:20.943Z,4.40
2018-02-12T09:30:22.035Z,4.40
2018-02-12T09:31:23.112Z,4.40
2018-02-12T09:32:24.202Z,4.40
2018-02-12T09:33:25.272Z,4.50
2018-02-12T09:34:26.363Z,4.60
2018-02-12T09:35:27.479Z,4.60
2018-02-12T09:36:28.574Z,4.70
2018-02-12T09:37:29.659Z,4.70
2018-02-12T09:38:30.722Z,4.80
2018-02-12T09:39:31.799Z,4.80
2018-02-12T09:40:32.867Z,4.80
2018-02-12T09:41:33.953Z,4.70
2018-02-12T09:42:35.785Z,4.60
2018-02-12T09:43:36.867Z,4.60
2018-02-12T09:44:37.934Z,4.60
2018-02-12T09:45:39.007Z,4.60
2018-02-12T09:46:40.824Z,4.60
2018-02-12T09:47:41.898Z,4.60
2018-02-12T09:48:42.982Z,4.60
2018-02-12T09:49:44.051Z,4.60
2018-02-12T09:50:45.157Z,4.60
2018-02-12T09:51:46.242Z,4.50
2018-02-12T09:52:47.322Z,4.40
2018-02-12T09:53:48.395Z,4.40
2018-02-12T09:54:50.213Z,4.40
2018-02-12T09:55:51.301Z,4.40
2018-02-12T09:56:52.384Z,4.40
2018-02-12T09:57:53.443Z,4.50
2018-02-12T09:58:54.528Z,4.50
2018-02-12T09:59:55.599Z,4.60
2018-02-12T10:00:57.458Z,4.60
2018-02-12T10:01:58.555Z,4.60
2018-02-12T10:02:59.660Z,4.60
2018-02-12T10:04:01.434Z,4.60
2018-02-12T10:05:02.502Z,4.60
2018-02-12T10:06:04.306Z,4.60
2018-02-12T10:07:05.395Z,4.60
2018-02-12T10:08:06.474Z,4.60
2018-02-12T10:09:07.563Z,4.70
2018-02-12T10:10:08.634Z,4.70
2018-02-12T10:11:09.791Z,4.80
2018-02-12T10:12:10.877Z,4.80
2018-02-12T10:13:11.943Z,4.90
2018-02-12T10:14:13.027Z,4.90
2018-02-12T10:15:14.090Z,5.00
2018-02-12T10:16:15.219Z,5.00
2018-02-12T10:17:16.307Z,5.00
2018-02-12T10:18:18.115Z,5.00
2018-02-12T10:19:19.256Z,5.00
2018-02-12T10:20:20.327Z,5.00
2018-02-12T10:21:22.135Z,5.00
2018-02-12T10:22:23.218Z,5.00
2018-02-12T10:23:24.307Z,4.90
2018-02-12T10:24:25.380Z,4.90
2018-02-12T10:25:26.492Z,4.80
2018-02-12T10:26:27.519Z,4.90
2018-02-12T10:27:29.347Z,4.90
2018-02-12T10:28:30.411Z,4.90
2018-02-12T10:29:32.233Z,4.90
2018-02-12T10:30:33.360Z,4.80
2018-02-12T10:31:34.439Z,4.90
2018-02-12T10:32:35.519Z,4.90
2018-02-12T10:33:36.595Z,4.90
2018-02-12T10:34:37.681Z,4.80
2018-02-12T10:35:38.759Z,4.80
2018-02-12T10:36:39.836Z,4.80
2018-02-12T10:37:40.917Z,4.70
2018-02-12T10:38:42.738Z,4.80
2018-02-12T10:39:43.811Z,4.80
2018-02-12T10:40:45.636Z,4.90
2018-02-12T10:41:46.743Z,4.90
2018-02-12T10:42:47.840Z,4.90
2018-02-12T10:43:48.914Z,4.90
2018-02-12T10:44:49.980Z,5.00
2018-02-12T10:45:51.059Z,5.10
2018-02-12T10:46:52.134Z,5.10
2018-02-12T10:47:53.946Z,5.10
2018-02-12T10:48:55.027Z,5.10
2018-02-12T10:49:56.107Z,5.20
2018-02-12T10:50:57.210Z,5.30
2018-02-12T10:51:59.006Z,5.40
2018-02-12T10:53:00.127Z,5.40
2018-02-12T10:54:01.219Z,5.40
2018-02-12T10:55:02.307Z,5.40
2018-02-12T10:56:03.393Z,5.50
2018-02-12T10:57:04.463Z,5.50
2018-02-12T10:58:05.554Z,5.50
2018-02-12T10:59:06.631Z,5.50
2018-02-12T11:00:07.754Z,5.50
2018-02-12T11:01:08.847Z,5.50
2018-02-12T11:02:09.971Z,5.50
2018-02-12T11:03:11.804Z,5.50
2018-02-12T11:04:12.891Z,5.50
2018-02-12T11:05:14.024Z,5.60
2018-02-12T11:06:15.132Z,5.50
2018-02-12T11:07:16.305Z,5.60
2018-02-12T11:08:17.514Z,5.60
2018-02-12T11:09:18.710Z,5.60
2018-02-12T11:10:20.524Z,5.40
2018-02-12T11:11:21.602Z,5.40
2018-02-12T11:12:22.686Z,5.40
2018-02-12T11:13:23.772Z,5.50
2018-02-12T11:14:24.870Z,5.50
2018-02-12T11:15:25.958Z,5.50
2018-02-12T11:16:27.045Z,5.50
2018-02-12T11:17:28.151Z,5.50
2018-02-12T11:18:29.230Z,5.50
2018-02-12T11:19:30.315Z,5.50
2018-02-12T11:20:31.422Z,5.50
2018-02-12T11:21:32.503Z,5.50
2018-02-12T11:22:33.583Z,5.40
2018-02-12T11:23:34.672Z,5.30
2018-02-12T11:24:35.859Z,5.40
2018-02-12T11:25:36.931Z,5.40
2018-02-12T11:26:38.015Z,5.30
2018-02-12T11:27:39.099Z,5.30
2018-02-12T11:28:40.235Z,5.30
2018-02-12T11:29:41.360Z,5.30
2018-02-12T11:30:43.364Z,5.40
2018-02-12T11:31:44.444Z,5.40
2018-02-12T11:32:45.548Z,5.40
2018-02-12T11:33:46.636Z,5.50
2018-02-12T11:34:48.463Z,5.40
2018-02-12T11:35:49.582Z,5.40
2018-02-12T11:36:50.675Z,5.40
2018-02-12T11:37:51.803Z,5.40
2018-02-12T11:38:52.925Z,5.40
2018-02-12T11:39:54.868Z,5.30
2018-02-12T11:40:55.959Z,5.30
2018-02-12T11:41:57.055Z,5.30
2018-02-12T11:42:58.148Z,5.30
2018-02-12T11:44:00.003Z,5.40
2018-02-12T11:45:01.079Z,5.40
2018-02-12T11:46:02.193Z,5.50
2018-02-12T11:47:03.297Z,5.60
2018-02-12T11:48:04.382Z,5.60
2018-02-12T11:49:05.479Z,5.60
2018-02-12T11:50:07.333Z,5.70
2018-02-12T11:51:09.164Z,5.80
2018-02-12T11:52:10.294Z,5.80
2018-02-12T11:53:11.406Z,5.80
2018-02-12T11:54:12.491Z,5.80
2018-02-12T11:55:13.591Z,5.60
2018-02-12T11:56:14.661Z,5.60
2018-02-12T11:57:15.792Z,5.60
2018-02-12T11:58:16.874Z,5.50
2018-02-12T11:59:17.966Z,5.50
2018-02-12T12:00:19.085Z,5.60
2018-02-12T12:01:20.160Z,5.60
2018-02-12T12:02:21.235Z,5.60
2018-02-12T12:03:23.051Z,5.60
2018-02-12T12:04:24.174Z,5.60
2018-02-12T12:05:25.262Z,5.60
2018-02-12T12:06:26.386Z,5.60
2018-02-12T12:07:28.227Z,5.70
2018-02-12T12:08:29.323Z,5.70
2018-02-12T12:09:30.403Z,5.80
2018-02-12T12:10:32.219Z,5.80
2018-02-12T12:11:33.306Z,5.80
2018-02-12T12:12:34.391Z,5.80
2018-02-12T12:13:35.451Z,5.90
2018-02-12T12:14:37.283Z,6.00
2018-02-12T12:15:39.296Z,6.00
2018-02-12T12:16:40.393Z,6.10
2018-02-12T12:17:41.479Z,6.10
2018-02-12T12:18:42.566Z,6.10
2018-02-12T12:19:43.706Z,6.20
2018-02-12T12:20:44.804Z,6.20
2018-02-12T12:21:45.891Z,6.30
2018-02-12T12:22:47.019Z,6.30
2018-02-12T12:23:48.134Z,6.30
2018-02-12T12:24:49.211Z,6.20
2018-02-12T12:25:50.306Z,6.20
2018-02-12T12:26:51.391Z,6.20
2018-02-12T12:27:52.528Z,6.10
2018-02-12T12:28:53.622Z,6.10
2018-02-12T12:29:54.727Z,6.00
2018-02-12T12:30:55.814Z,6.10
2018-02-12T12:31:56.959Z,6.10
2018-02-12T12:32:58.031Z,6.10
2018-02-12T12:33:59.111Z,6.10
2018-02-12T12:35:00.197Z,6.00
2018-02-12T12:36:01.266Z,6.00
2018-02-12T12:37:03.175Z,6.00
2018-02-12T12:38:04.239Z,5.80
2018-02-12T12:39:05.311Z,5.60
2018-02-12T12:40:07.146Z,5.30
2018-02-12T12:41:08.224Z,5.20
2018-02-12T12:42:09.347Z,5.10
2018-02-12T12:43:11.187Z,4.80
2018-02-12T12:44:12.319Z,4.80
2018-02-12T12:45:14.166Z,4.60
2018-02-12T12:46:16.035Z,4.50
2018-02-12T12:47:17.144Z,4.50
2018-02-12T12:48:18.222Z,4.60
2018-02-12T12:49:19.311Z,4.60
2018-02-12T12:50:20.395Z,4.60
2018-02-12T12:51:22.283Z,4.70
2018-02-12T12:52:23.350Z,4.70
2018-02-12T12:53:24.453Z,4.80
2018-02-12T12:54:26.266Z,5.00
2018-02-12T12:55:27.364Z,5.00
2018-02-12T12:56:28.466Z,5.10
2018-02-12T12:57:29.563Z,5.20
2018-02-12T12:58:30.659Z,5.10
2018-02-12T12:59:31.743Z,5.40
2018-02-12T13:00:32.827Z,5.50
2018-02-12T13:01:33.923Z,5.60
2018-02-12T13:02:35.023Z,5.60
2018-02-12T13:03:36.185Z,5.60
2018-02-12T13:04:37.261Z,5.70
2018-02-12T13:05:38.359Z,5.80
2018-02-12T13:06:39.427Z,5.90
2018-02-12T13:07:40.539Z,5.90
2018-02-12T13:08:41.614Z,5.90
2018-02-12T13:09:42.691Z,6.00
2018-02-12T13:10:44.519Z,6.10
2018-02-12T13:11:45.615Z,6.20
2018-02-12T13:12:46.706Z,6.20
2018-02-12T13:13:47.775Z,6.30
2018-02-12T13:14:48.865Z,6.30
2018-02-12T13:15:49.958Z,6.40
2018-02-12T13:16:51.043Z,6.40
2018-02-12T13:17:52.871Z,6.50
2018-02-12T13:18:53.985Z,6.50
2018-02-12T13:19:55.062Z,6.60
2018-02-12T13:20:56.163Z,6.60
2018-02-12T13:21:57.246Z,6.60
2018-02-12T13:22:58.323Z,6.60
2018-02-12T13:23:59.410Z,6.60
2018-02-12T13:25:00.488Z,6.60
2018-02-12T13:26:01.602Z,6.50
2018-02-12T13:27:02.690Z,6.40
2018-02-12T13:28:03.787Z,6.40
2018-02-12T13:29:04.866Z,6.20
2018-02-12T13:30:05.979Z,6.10
2018-02-12T13:31:07.824Z,6.00
2018-02-12T13:32:08.948Z,6.00
2018-02-12T13:33:10.040Z,6.00
2018-02-12T13:34:11.107Z,5.90
2018-02-12T13:35:12.175Z,5.90
2018-02-12T13:36:13.270Z,5.90
2018-02-12T13:37:14.355Z,5.90
2018-02-12T13:38:15.454Z,5.80
2018-02-12T13:39:16.567Z,5.80
2018-02-12T13:40:17.643Z,5.80
2018-02-12T13:41:18.718Z,5.90
2018-02-12T13:42:19.816Z,5.90
2018-02-12T13:43:20.902Z,5.90
2018-02-12T13:44:22.031Z,6.00